Time;durP1;ratioP1;P1;durP2;ratioP2;P2;SDS_P1;SDS_P2;PMS_P1;PMS_P2;Temp;Humidity;BMP_temperature;BMP_pressure;BME280_temperature;BME280_humidity;BME280_pressure;Samples;Min_cycle;Max_cycle;Signal;HPM_P1;HPM_P2
2020/12/28 00:02:11;;;;;;;24.53;23.73;;;4.10;1.00;;;;;;5055151;28;20177;-71
2020/12/28 00:04:38;;;;;;;26.02;25.13;;;4.00;1.00;;;;;;5054777;28;20169;-72
2020/12/28 00:07:04;;;;;;;31.27;30.27;;;4.10;1.00;;;;;;5055043;28;20197;-71
2020/12/28 00:09:30;;;;;;;29.65;28.50;;;4.10;1.00;;;;;;5054900;28;20639;-71
2020/12/28 00:11:56;;;;;;;23.43;22.67;;;4.10;1.00;;;;;;5055071;28;20189;-72
2020/12/28 00:14:23;;;;;;;20.33;19.58;;;4.10;1.00;;;;;;5054778;28;20174;-72
2020/12/28 00:16:49;;;;;;;22.13;21.35;;;4.10;1.00;;;;;;5054903;28;20257;-72
2020/12/28 00:19:15;;;;;;;23.55;22.65;;;4.20;1.00;;;;;;5053517;28;20612;-72
2020/12/28 00:21:41;;;;;;;24.67;23.87;;;4.20;1.00;;;;;;5054680;28;20169;-72
2020/12/28 00:24:06;;;;;;;19.55;18.73;;;4.20;1.00;;;;;;5054464;28;20491;-72
2020/12/28 00:26:42;;;;;;;18.03;17.43;;;4.30;1.00;;;;;;5054505;28;20232;-72
2020/12/28 00:29:09;;;;;;;20.23;19.52;;;4.30;1.00;;;;;;5055020;28;20211;-72
2020/12/28 00:31:35;;;;;;;27.50;26.50;;;4.30;1.00;;;;;;5054584;28;20249;-72
2020/12/28 00:34:02;;;;;;;27.83;26.80;;;4.30;1.00;;;;;;5054398;28;20201;-72
2020/12/28 00:36:28;;;;;;;18.85;18.13;;;4.30;1.00;;;;;;5054592;28;20201;-72
2020/12/28 00:38:53;;;;;;;20.90;20.20;;;4.30;1.00;;;;;;5054209;28;20648;-72
2020/12/28 00:41:19;;;;;;;27.97;27.03;;;4.30;1.00;;;;;;5054118;28;20202;-72
2020/12/28 00:43:45;;;;;;;25.87;25.00;;;4.30;1.00;;;;;;5054427;28;20867;-72
2020/12/28 00:46:12;;;;;;;28.38;27.48;;;4.30;1.00;;;;;;5054210;28;20512;-72
2020/12/28 00:48:38;;;;;;;22.30;21.48;;;4.30;1.00;;;;;;5054070;28;20692;-72
2020/12/28 00:51:04;;;;;;;25.23;24.23;;;4.30;1.00;;;;;;5054468;28;20213;-72
2020/12/28 00:53:30;;;;;;;30.07;29.07;;;4.30;1.00;;;;;;5054093;28;20766;-72
2020/12/28 00:55:56;;;;;;;19.75;19.05;;;4.30;1.00;;;;;;5053738;28;20178;-72
2020/12/28 00:58:22;;;;;;;22.88;22.08;;;4.30;1.00;;;;;;5054224;28;20251;-72
2020/12/28 01:00:48;;;;;;;21.07;20.37;;;4.30;1.00;;;;;;5053682;28;20567;-72
2020/12/28 01:03:14;;;;;;;24.17;23.27;;;4.30;1.00;;;;;;5053967;28;20162;-72
2020/12/28 01:05:43;;;;;;;25.73;24.87;;;4.30;1.00;;;;;;5052344;28;20174;-72
2020/12/28 01:08:09;;;;;;;26.58;25.58;;;4.30;1.00;;;;;;5053661;28;20856;-72
2020/12/28 01:10:35;;;;;;;20.37;19.70;;;4.30;1.00;;;;;;5053630;28;20253;-72
2020/12/28 01:13:01;;;;;;;20.80;20.10;;;4.40;1.00;;;;;;5053899;28;20401;-72
2020/12/28 01:15:27;;;;;;;23.38;22.48;;;4.30;1.00;;;;;;5053907;28;20234;-72
2020/12/28 01:17:54;;;;;;;23.03;22.23;;;4.30;1.00;;;;;;5053991;28;20707;-72
2020/12/28 01:20:20;;;;;;;27.75;26.65;;;4.30;1.00;;;;;;5052018;28;20206;-72
2020/12/28 01:22:45;;;;;;;33.30;32.30;;;4.20;1.00;;;;;;5053902;28;20495;-72
2020/12/28 01:25:11;;;;;;;28.67;27.67;;;4.30;1.00;;;;;;5053450;28;20456;-72
2020/12/28 01:27:37;;;;;;;31.80;30.70;;;4.30;1.00;;;;;;5053693;28;20247;-72
2020/12/28 01:30:03;;;;;;;21.73;21.13;;;4.30;1.00;;;;;;5053412;28;20565;-72
2020/12/28 01:32:28;;;;;;;30.95;29.95;;;4.30;1.00;;;;;;5053879;28;20173;-72
2020/12/28 01:34:54;;;;;;;25.67;24.87;;;4.30;1.00;;;;;;5053556;28;20219;-72
2020/12/28 01:37:19;;;;;;;27.23;26.30;;;4.30;1.00;;;;;;5053733;28;20197;-72
2020/12/28 01:39:45;;;;;;;21.47;20.80;;;4.40;1.00;;;;;;5053359;28;20204;-72
2020/12/28 01:42:11;;;;;;;29.53;28.53;;;4.40;1.00;;;;;;5053219;28;20258;-72
2020/12/28 01:44:37;;;;;;;18.00;17.33;;;4.40;1.00;;;;;;5053080;28;20169;-72
2020/12/28 01:47:02;;;;;;;20.42;19.77;;;4.40;1.00;;;;;;5053578;28;20428;-72
2020/12/28 01:49:28;;;;;;;21.87;21.17;;;4.50;1.00;;;;;;5053921;28;20185;-72
2020/12/28 01:51:55;;;;;;;16.77;16.17;;;4.50;1.00;;;;;;5053449;28;20621;-72
2020/12/28 01:54:21;;;;;;;19.85;19.15;;;4.50;1.00;;;;;;5053235;28;20413;-72
2020/12/28 01:56:47;;;;;;;24.97;24.10;;;4.50;1.00;;;;;;5053556;28;20181;-72
2020/12/28 01:59:15;;;;;;;24.80;23.90;;;4.60;1.00;;;;;;5053478;28;20415;-72
2020/12/28 02:01:41;;;;;;;21.45;20.75;;;4.60;1.00;;;;;;5053378;28;20403;-72
2020/12/28 02:04:08;;;;;;;27.35;26.45;;;4.60;1.00;;;;;;5053251;28;20280;-72
2020/12/28 02:06:35;;;;;;;17.73;17.02;;;4.60;1.00;;;;;;5052933;28;20620;-72
2020/12/28 02:09:01;;;;;;;28.05;27.05;;;4.50;1.00;;;;;;5053047;28;20155;-72
2020/12/28 02:11:28;;;;;;;27.67;26.73;;;4.60;1.00;;;;;;5053305;28;20248;-72
2020/12/28 02:13:54;;;;;;;25.35;24.55;;;4.50;1.00;;;;;;5053509;28;20217;-72
2020/12/28 02:16:19;;;;;;;20.92;20.15;;;4.50;1.00;;;;;;5052783;28;20220;-72
2020/12/28 02:18:45;;;;;;;19.27;18.63;;;4.50;1.00;;;;;;5053529;28;20201;-72
2020/12/28 02:21:11;;;;;;;20.27;19.67;;;4.60;1.00;;;;;;5052849;28;20205;-72
2020/12/28 02:23:36;;;;;;;18.63;17.83;;;4.50;1.00;;;;;;5053179;28;20249;-72
2020/12/28 02:26:02;;;;;;;20.97;20.27;;;4.60;1.00;;;;;;5053045;28;20170;-72
2020/12/28 02:28:28;;;;;;;19.40;18.70;;;4.60;1.00;;;;;;5053256;28;20190;-72
2020/12/28 02:30:54;;;;;;;26.03;25.13;;;4.50;1.00;;;;;;5053033;28;20263;-72
2020/12/28 02:33:19;;;;;;;24.53;23.63;;;4.50;1.00;;;;;;5053460;28;20170;-72
2020/12/28 02:35:45;;;;;;;20.17;19.37;;;4.50;1.00;;;;;;5052727;28;20252;-72
2020/12/28 02:38:10;;;;;;;27.93;27.03;;;4.50;1.00;;;;;;5052937;28;20541;-72
2020/12/28 02:40:36;;;;;;;19.17;18.50;;;4.60;1.00;;;;;;5051791;28;20694;-72
2020/12/28 02:43:01;;;;;;;22.63;21.77;;;4.50;1.00;;;;;;5054237;28;20181;-72
2020/12/28 02:45:27;;;;;;;25.33;24.43;;;4.50;1.00;;;;;;5056304;28;20180;-72
2020/12/28 02:47:53;;;;;;;32.87;31.87;;;4.60;1.00;;;;;;5056860;28;20532;-72
2020/12/28 02:50:18;;;;;;;24.30;23.50;;;4.60;1.00;;;;;;5056465;28;20170;-72
2020/12/28 02:52:44;;;;;;;27.97;27.03;;;4.60;1.00;;;;;;5056375;28;20512;-72
2020/12/28 02:55:11;;;;;;;25.75;24.67;;;4.60;1.00;;;;;;5055925;28;20224;-72
2020/12/28 02:57:37;;;;;;;28.08;27.02;;;4.50;1.00;;;;;;5056320;28;20202;-72
2020/12/28 03:00:04;;;;;;;20.83;20.03;;;4.60;1.00;;;;;;5054624;28;20197;-72
2020/12/28 03:02:30;;;;;;;16.63;16.02;;;4.60;1.00;;;;;;5055403;28;20647;-72
2020/12/28 03:04:56;;;;;;;20.87;20.07;;;4.50;1.00;;;;;;5055792;28;20182;-72
2020/12/28 03:07:21;;;;;;;24.67;23.77;;;4.60;1.00;;;;;;5056032;28;20292;-72
2020/12/28 03:09:47;;;;;;;19.90;19.20;;;4.60;1.00;;;;;;5056192;28;20177;-72
2020/12/28 03:12:12;;;;;;;22.30;21.60;;;4.50;1.00;;;;;;5056088;28;20183;-72
2020/12/28 03:14:38;;;;;;;21.10;20.40;;;4.50;1.00;;;;;;5055579;28;20181;-72
2020/12/28 03:17:04;;;;;;;24.63;23.67;;;4.50;1.00;;;;;;5055628;28;20198;-72
2020/12/28 03:19:31;;;;;;;21.43;20.63;;;4.50;1.00;;;;;;5055533;28;20240;-72
2020/12/28 03:21:57;;;;;;;16.10;15.60;;;4.50;1.00;;;;;;5055636;28;20146;-72
2020/12/28 03:24:23;;;;;;;23.73;22.83;;;4.50;1.00;;;;;;5055427;28;20170;-72
2020/12/28 03:26:49;;;;;;;18.60;18.00;;;4.50;1.00;;;;;;5055772;28;20211;-72
2020/12/28 03:29:14;;;;;;;19.73;18.93;;;4.50;1.00;;;;;;5055515;28;20177;-72
2020/12/28 03:31:41;;;;;;;19.93;19.20;;;4.50;1.00;;;;;;5055884;28;20181;-72
2020/12/28 03:34:07;;;;;;;24.80;23.90;;;4.60;1.00;;;;;;5054208;28;20632;-71
2020/12/28 03:36:33;;;;;;;23.13;22.23;;;4.50;1.00;;;;;;5055311;28;20205;-72
2020/12/28 03:38:58;;;;;;;18.75;17.98;;;4.50;1.00;;;;;;5055630;28;20265;-72
2020/12/28 03:41:24;;;;;;;24.00;23.10;;;4.50;1.00;;;;;;5055140;28;20619;-72
2020/12/28 03:43:49;;;;;;;22.03;21.13;;;4.60;1.00;;;;;;5055790;28;20170;-72
2020/12/28 03:46:15;;;;;;;22.27;21.43;;;4.50;1.00;;;;;;5055023;28;20181;-72
2020/12/28 03:48:40;;;;;;;27.63;26.67;;;4.60;1.00;;;;;;5055130;28;20207;-72
2020/12/28 03:51:06;;;;;;;26.03;25.13;;;4.60;1.00;;;;;;5055006;28;20181;-72
2020/12/28 03:53:31;;;;;;;21.33;20.63;;;4.60;1.00;;;;;;5055566;28;20197;-72
2020/12/28 03:55:57;;;;;;;21.90;21.20;;;4.60;1.00;;;;;;5054768;28;20182;-72
2020/12/28 03:58:23;;;;;;;26.00;25.10;;;4.60;1.00;;;;;;5054764;28;20703;-72
2020/12/28 04:00:48;;;;;;;27.43;26.47;;;4.60;1.00;;;;;;5055485;28;20224;-72
2020/12/28 04:03:15;;;;;;;27.80;26.80;;;4.60;1.00;;;;;;5054888;28;20174;-72
2020/12/28 04:05:41;;;;;;;29.08;28.02;;;4.60;1.00;;;;;;5054700;28;20161;-72
2020/12/28 04:08:06;;;;;;;27.87;26.97;;;4.60;1.00;;;;;;5055033;28;20580;-72
2020/12/28 04:10:33;;;;;;;30.23;29.23;;;4.70;1.00;;;;;;5055085;28;20404;-72
2020/12/28 04:12:59;;;;;;;30.25;29.15;;;4.70;1.00;;;;;;5055228;28;20199;-72
2020/12/28 04:15:25;;;;;;;27.15;26.20;;;4.70;1.00;;;;;;5054687;28;20538;-72
2020/12/28 04:17:50;;;;;;;26.87;25.87;;;4.70;1.00;;;;;;5054268;28;20245;-72
2020/12/28 04:20:17;;;;;;;24.53;23.73;;;4.70;1.00;;;;;;5054673;28;20205;-72
2020/12/28 04:22:42;;;;;;;29.30;28.30;;;4.60;1.00;;;;;;5053343;28;20189;-72
2020/12/28 04:25:13;;;;;;;28.33;27.13;;;4.50;1.00;;;;;;5054369;28;20737;-72
2020/12/28 04:27:39;;;;;;;27.33;26.25;;;4.60;1.00;;;;;;5054452;28;20692;-72
2020/12/28 04:30:05;;;;;;;29.80;28.80;;;4.60;1.00;;;;;;5054249;28;20210;-72
2020/12/28 04:32:30;;;;;;;27.20;26.20;;;4.60;1.00;;;;;;5054700;28;20186;-72
2020/12/28 04:34:56;;;;;;;19.23;18.43;;;4.60;1.00;;;;;;5054459;28;20256;-72
2020/12/28 04:37:21;;;;;;;22.73;21.93;;;4.60;1.00;;;;;;5054277;28;20198;-72
2020/12/28 04:39:47;;;;;;;22.13;21.33;;;4.60;1.00;;;;;;5052815;28;20197;-72
2020/12/28 04:42:12;;;;;;;19.50;18.70;;;4.60;1.00;;;;;;5054712;28;20527;-72
2020/12/28 04:44:38;;;;;;;23.20;22.40;;;4.60;1.00;;;;;;5054567;28;20173;-72
2020/12/28 04:47:03;;;;;;;18.53;17.90;;;4.70;1.00;;;;;;5054056;28;20209;-72
2020/12/28 04:49:30;;;;;;;36.43;35.23;;;4.70;1.00;;;;;;5054180;28;20188;-72
2020/12/28 04:51:57;;;;;;;28.27;27.17;;;4.60;1.00;;;;;;5054400;28;20593;-72
2020/12/28 04:54:22;;;;;;;27.08;25.98;;;4.60;1.00;;;;;;5054206;28;20180;-72
2020/12/28 04:56:48;;;;;;;21.00;20.20;;;4.70;1.00;;;;;;5054008;28;20169;-72
2020/12/28 04:59:14;;;;;;;20.00;19.20;;;4.70;1.00;;;;;;5054185;28;20176;-72
2020/12/28 05:01:51;;;;;;;23.23;22.40;;;4.80;1.00;;;;;;5054120;28;20174;-72
2020/12/28 05:04:16;;;;;;;24.42;23.55;;;4.80;1.00;;;;;;5054200;28;20616;-72
2020/12/28 05:06:42;;;;;;;24.87;23.90;;;4.80;1.00;;;;;;5053370;28;20261;-72
2020/12/28 05:09:09;;;;;;;21.07;20.27;;;4.90;1.00;;;;;;5053616;28;20620;-72
2020/12/28 05:11:34;;;;;;;32.60;31.52;;;4.90;1.00;;;;;;5053035;28;20182;-72
2020/12/28 05:14:00;;;;;;;28.53;27.53;;;5.00;1.00;;;;;;5054031;28;20173;-72
2020/12/28 05:16:25;;;;;;;25.40;24.30;;;5.00;1.00;;;;;;5053588;28;20219;-72
2020/12/28 05:18:52;;;;;;;27.70;26.70;;;4.90;1.00;;;;;;5054071;28;20247;-72
2020/12/28 05:21:27;;;;;;;28.90;27.80;;;4.90;1.00;;;;;;5052506;28;20205;-72
2020/12/28 05:23:52;;;;;;;29.95;28.88;;;4.90;1.00;;;;;;5054026;28;20173;-72
2020/12/28 05:26:22;;;;;;;33.70;32.57;;;4.90;1.00;;;;;;5053253;28;20181;-72
2020/12/28 05:28:50;;;;;;;23.40;22.40;;;5.00;1.00;;;;;;5053490;28;20706;-72
2020/12/28 05:31:17;;;;;;;25.63;24.30;;;4.90;1.00;;;;;;5053654;28;20178;-72
2020/12/28 05:33:45;;;;;;;21.67;20.75;;;5.00;1.00;;;;;;5053348;28;20161;-72
2020/12/28 05:36:13;;;;;;;23.27;22.45;;;4.90;1.00;;;;;;5053307;28;20185;-72
2020/12/28 05:38:41;;;;;;;23.55;22.65;;;5.00;1.00;;;;;;5053170;28;20197;-74
2020/12/28 05:41:07;;;;;;;25.35;24.35;;;5.00;1.00;;;;;;5053263;28;20206;-74
2020/12/28 05:43:32;;;;;;;23.33;22.43;;;5.00;1.00;;;;;;5052032;28;20538;-74
2020/12/28 05:45:58;;;;;;;21.90;21.10;;;5.10;1.00;;;;;;5053444;28;20197;-74
2020/12/28 05:48:25;;;;;;;23.80;22.90;;;5.10;1.00;;;;;;5053236;28;20603;-74
2020/12/28 05:50:57;;;;;;;28.92;27.83;;;5.10;1.00;;;;;;5053719;28;20496;-74
2020/12/28 05:53:25;;;;;;;21.77;20.88;;;5.10;1.00;;;;;;5053435;28;20625;-74
2020/12/28 05:55:51;;;;;;;20.92;19.92;;;5.10;1.00;;;;;;5051845;28;20178;-74
2020/12/28 05:58:19;;;;;;;23.85;22.85;;;5.20;1.00;;;;;;5053427;28;20606;-74
2020/12/28 06:00:46;;;;;;;25.70;24.38;;;5.20;1.00;;;;;;5053393;28;20193;-74
2020/12/28 06:03:12;;;;;;;23.15;22.05;;;5.20;1.00;;;;;;5051747;28;20181;-74
2020/12/28 06:05:37;;;;;;;22.08;21.17;;;5.20;1.00;;;;;;5053153;28;20237;-74
2020/12/28 06:08:04;;;;;;;23.27;22.37;;;5.20;1.00;;;;;;5053598;28;20517;-74
2020/12/28 06:10:34;;;;;;;30.05;28.63;;;5.20;1.00;;;;;;5053362;28;20228;-74
2020/12/28 06:13:00;;;;;;;26.52;25.55;;;5.20;1.00;;;;;;5053314;28;20174;-74
2020/12/28 06:15:25;;;;;;;20.10;19.30;;;5.20;1.00;;;;;;5051538;28;20180;-74
2020/12/28 06:17:51;;;;;;;20.60;19.70;;;5.20;1.00;;;;;;5054313;28;20189;-74
2020/12/28 06:20:17;;;;;;;17.50;16.87;;;5.20;1.00;;;;;;5056553;28;20205;-74
2020/12/28 06:22:43;;;;;;;14.53;13.83;;;5.20;1.00;;;;;;5056762;28;20716;-74
2020/12/28 06:25:16;;;;;;;24.85;23.92;;;5.20;1.00;;;;;;5056683;28;20211;-74
2020/12/28 06:27:43;;;;;;;26.15;25.15;;;5.20;1.00;;;;;;5056732;28;20558;-74
2020/12/28 06:30:15;;;;;;;24.13;23.13;;;5.20;1.00;;;;;;5057192;28;20256;-74
2020/12/28 06:32:43;;;;;;;23.75;22.95;;;5.20;1.00;;;;;;5055278;28;20223;-74
2020/12/28 06:35:14;;;;;;;21.55;20.65;;;5.20;1.00;;;;;;5056868;28;20703;-74
2020/12/28 06:37:45;;;;;;;24.45;23.35;;;5.30;1.00;;;;;;5056639;28;20328;-74
2020/12/28 06:40:12;;;;;;;25.17;24.27;;;5.20;1.00;;;;;;5056644;28;20196;-74
2020/12/28 06:42:38;;;;;;;21.95;21.10;;;5.20;1.00;;;;;;5056814;28;20279;-74
2020/12/28 06:45:12;;;;;;;28.77;27.67;;;5.20;1.00;;;;;;5056646;28;20247;-74
2020/12/28 06:47:38;;;;;;;36.63;35.22;;;5.10;1.00;;;;;;5056582;28;20232;-74
2020/12/28 06:50:04;;;;;;;28.23;27.23;;;5.20;1.00;;;;;;5056367;28;20205;-74
2020/12/28 06:52:30;;;;;;;21.10;20.30;;;5.20;1.00;;;;;;5056172;28;20636;-74
2020/12/28 06:54:55;;;;;;;25.20;24.13;;;5.10;1.00;;;;;;5056366;28;20177;-74
2020/12/28 06:57:23;;;;;;;23.97;23.07;;;5.10;1.00;;;;;;5055549;28;20225;-74
2020/12/28 06:59:51;;;;;;;27.63;26.52;;;5.00;1.00;;;;;;5056664;28;20201;-74
2020/12/28 07:02:17;;;;;;;31.13;29.83;;;5.10;1.00;;;;;;5056427;28;20178;-74
2020/12/28 07:04:43;;;;;;;33.28;31.98;;;5.10;1.00;;;;;;5055903;28;20672;-74
2020/12/28 07:07:09;;;;;;;27.30;26.27;;;5.10;1.00;;;;;;5054657;28;20613;-74
2020/12/28 07:09:35;;;;;;;25.57;24.67;;;5.10;1.00;;;;;;5056331;28;20170;-74
2020/12/28 07:12:08;;;;;;;28.63;27.42;;;5.20;1.00;;;;;;5056179;28;20166;-74
2020/12/28 07:14:34;;;;;;;27.95;26.95;;;5.20;1.00;;;;;;5055065;28;20268;-74
2020/12/28 07:16:59;;;;;;;25.77;24.77;;;5.20;1.00;;;;;;5055753;28;20244;-74
2020/12/28 07:19:25;;;;;;;31.27;30.17;;;5.20;1.00;;;;;;5055554;28;20178;-74
2020/12/28 07:21:51;;;;;;;27.77;26.77;;;5.20;1.00;;;;;;5056100;28;20636;-74
2020/12/28 07:24:17;;;;;;;25.02;24.23;;;5.20;1.00;;;;;;5055959;28;20527;-74
2020/12/28 07:26:43;;;;;;;24.60;23.70;;;5.20;1.00;;;;;;5055860;28;20169;-74
2020/12/28 07:29:19;;;;;;;21.13;20.30;;;5.20;1.00;;;;;;5054937;28;20693;-74
2020/12/28 07:31:46;;;;;;;27.88;26.77;;;5.30;1.00;;;;;;5055887;28;20189;-74
2020/12/28 07:34:19;;;;;;;25.25;24.33;;;5.30;1.00;;;;;;5055649;28;20169;-74
2020/12/28 07:36:51;;;;;;;31.08;29.88;;;5.20;1.00;;;;;;5055147;28;20182;-74
2020/12/28 07:39:18;;;;;;;22.60;21.70;;;5.30;1.00;;;;;;5055615;28;20154;-74
2020/12/28 07:41:44;;;;;;;24.50;23.60;;;5.30;1.00;;;;;;5055937;28;20166;-74
2020/12/28 07:44:14;;;;;;;21.87;20.93;;;5.30;1.00;;;;;;5053931;28;20176;-74
2020/12/28 07:46:58;;;;;;;25.55;24.52;;;5.30;1.00;;;;;;5055245;28;20162;-74
2020/12/28 07:49:25;;;;;;;28.83;27.83;;;5.30;1.00;;;;;;5055759;28;20169;-74
2020/12/28 07:52:12;;;;;;;24.73;23.38;;;5.30;1.00;;;;;;5055298;28;20200;-74
2020/12/28 07:54:46;;;;;;;31.98;30.88;;;5.30;1.00;;;;;;5054857;28;20178;-74
2020/12/28 07:57:18;;;;;;;27.10;26.10;;;5.30;1.00;;;;;;5055145;28;20675;-74
2020/12/28 08:00:05;;;;;;;32.95;31.75;;;5.40;1.00;;;;;;5055295;28;20624;-74
2020/12/28 08:02:48;;;;;;;33.95;32.72;;;5.40;1.00;;;;;;5064120;28;20165;-79
2020/12/28 08:05:17;;;;;;;25.08;24.17;;;5.40;1.00;;;;;;5063673;28;20174;-79
2020/12/28 08:15:32;;;;;;;29.42;27.92;;;5.20;1.00;;;;;;5084735;28;20202;-79
2020/12/28 08:23:09;;;;;;;29.55;28.35;;;5.10;1.00;;;;;;5964545;23;20636;-80
2020/12/28 08:25:36;;;;;;;27.63;26.73;;;5.10;1.00;;;;;;5086950;28;20181;-80
2020/12/28 08:34:08;;;;;;;23.13;22.23;;;5.20;1.00;;;;;;5852489;23;20250;-79
2020/12/28 08:36:37;;;;;;;23.25;22.35;;;5.30;1.00;;;;;;5085330;28;20215;-79
2020/12/28 08:44:33;;;;;;;17.05;16.35;;;5.30;1.00;;;;;;5164648;23;20228;-79
2020/12/28 09:00:23;;;;;;;16.08;15.48;;;5.30;1.00;;;;;;5063437;28;20251;-78
2020/12/28 09:02:56;;;;;;;21.20;20.40;;;5.30;1.00;;;;;;5055063;28;20150;-76
2020/12/28 09:05:22;;;;;;;17.70;17.00;;;5.30;1.00;;;;;;5053317;28;20651;-73
2020/12/28 09:07:48;;;;;;;19.95;18.85;;;5.40;1.00;;;;;;5041871;28;20273;-74
2020/12/28 09:10:14;;;;;;;19.47;18.73;;;5.40;1.00;;;;;;5032709;28;20613;-73
2020/12/28 09:12:41;;;;;;;18.30;17.63;;;5.40;1.00;;;;;;5032337;28;20197;-73
2020/12/28 09:15:07;;;;;;;19.30;18.70;;;5.40;1.00;;;;;;5031741;28;20546;-73
2020/12/28 09:17:33;;;;;;;19.08;18.48;;;5.40;1.00;;;;;;5031618;28;20710;-73
2020/12/28 09:19:59;;;;;;;30.67;28.50;;;5.40;1.00;;;;;;5031938;28;20214;-72
2020/12/28 09:22:24;;;;;;;25.40;23.37;;;5.30;1.00;;;;;;5032399;28;20620;-73
2020/12/28 09:24:50;;;;;;;21.50;20.63;;;5.30;1.00;;;;;;5032191;28;20170;-73
2020/12/28 09:27:16;;;;;;;20.03;19.30;;;5.30;1.00;;;;;;5032500;28;20556;-73
2020/12/28 09:29:41;;;;;;;21.10;20.30;;;5.30;1.00;;;;;;5032184;28;20182;-72
2020/12/28 09:32:07;;;;;;;22.07;21.07;;;5.40;1.00;;;;;;5029833;28;20190;-73
2020/12/28 09:34:32;;;;;;;18.80;18.13;;;5.30;1.00;;;;;;5032281;28;20698;-73
2020/12/28 09:37:03;;;;;;;28.07;26.93;;;5.30;1.00;;;;;;5032111;28;20201;-72
2020/12/28 09:39:28;;;;;;;32.58;31.38;;;5.30;1.00;;;;;;5031225;28;20240;-73
2020/12/28 09:41:55;;;;;;;27.93;26.90;;;5.30;1.00;;;;;;5019061;28;20212;-72
2020/12/28 09:44:20;;;;;;;25.33;24.42;;;5.30;1.00;;;;;;5012072;28;20171;-73
2020/12/28 09:46:46;;;;;;;21.20;20.47;;;5.40;1.00;;;;;;5011607;28;20182;-73
2020/12/28 09:49:12;;;;;;;24.10;23.20;;;5.40;1.00;;;;;;5012314;28;20198;-73
2020/12/28 09:51:37;;;;;;;23.17;22.27;;;5.50;1.00;;;;;;5013263;28;20175;-73
2020/12/28 09:54:03;;;;;;;25.97;24.87;;;5.50;1.00;;;;;;5016212;28;20550;-73
2020/12/28 09:56:29;;;;;;;25.40;24.50;;;5.40;1.00;;;;;;5016248;28;20185;-73
2020/12/28 09:58:54;;;;;;;30.97;29.80;;;5.50;1.00;;;;;;5016102;28;20647;-73
2020/12/28 10:01:20;;;;;;;30.33;29.03;;;5.60;1.00;;;;;;5015715;28;20203;-73
2020/12/28 10:03:45;;;;;;;31.40;30.10;;;5.60;1.00;;;;;;5016126;28;20261;-73
2020/12/28 10:06:34;;;;;;;31.97;30.57;;;5.70;1.00;;;;;;5016073;28;20210;-73
2020/12/28 10:09:03;;;;;;;24.40;23.13;;;5.60;1.00;;;;;;5016339;28;20261;-72
2020/12/28 10:11:29;;;;;;;34.13;32.75;;;5.60;1.00;;;;;;5015838;28;20237;-73
2020/12/28 10:13:55;;;;;;;32.63;31.03;;;5.50;1.00;;;;;;5016058;28;20179;-72
2020/12/28 10:16:24;;;;;;;33.87;32.37;;;5.40;1.00;;;;;;5015650;28;20577;-73
2020/12/28 10:18:52;;;;;;;31.58;30.17;;;5.40;1.00;;;;;;5015684;28;20195;-73
2020/12/28 10:21:19;;;;;;;31.58;30.08;;;5.50;1.00;;;;;;5012863;28;20183;-72
2020/12/28 10:23:44;;;;;;;32.90;31.30;;;5.50;1.00;;;;;;5015816;28;20163;-73
2020/12/28 10:26:19;;;;;;;28.83;27.37;;;5.50;1.00;;;;;;5015391;28;20241;-73
2020/12/28 10:28:45;;;;;;;28.52;26.98;;;5.60;1.00;;;;;;5015493;28;20727;-73
2020/12/28 10:31:11;;;;;;;27.33;26.00;;;5.50;1.00;;;;;;5018963;28;20191;-72
2020/12/28 10:33:42;;;;;;;33.75;31.85;;;5.60;1.00;;;;;;5008515;28;20417;-72
2020/12/28 10:36:17;;;;;;;25.52;24.02;;;5.50;1.00;;;;;;5035171;28;20269;-73
2020/12/28 10:38:47;;;;;;;29.27;27.55;;;5.50;1.00;;;;;;5050562;28;20672;-73
2020/12/28 10:41:13;;;;;;;33.42;31.52;;;5.50;1.00;;;;;;5035177;28;20194;-73
2020/12/28 10:43:39;;;;;;;27.90;26.30;;;5.60;1.00;;;;;;5035168;28;20173;-72
2020/12/28 10:46:07;;;;;;;24.98;23.48;;;5.60;1.00;;;;;;5031085;28;20431;-73
2020/12/28 10:48:33;;;;;;;25.55;24.05;;;5.70;1.00;;;;;;5032292;28;20252;-74
2020/12/28 10:50:58;;;;;;;28.77;26.97;;;5.80;1.00;;;;;;5026766;28;20253;-73
2020/12/28 10:53:24;;;;;;;29.67;28.00;;;5.70;1.00;;;;;;5021149;28;20425;-73
2020/12/28 10:55:49;;;;;;;29.60;27.90;;;5.80;1.00;;;;;;5013965;28;20185;-73
2020/12/28 10:58:15;;;;;;;27.13;25.43;;;5.70;1.00;;;;;;5028594;28;20207;-73
2020/12/28 11:00:42;;;;;;;30.40;28.53;;;5.80;1.00;;;;;;5010775;28;20254;-73
2020/12/28 11:03:07;;;;;;;37.03;34.97;;;5.90;1.00;;;;;;5014236;28;20168;-73
2020/12/28 11:05:33;;;;;;;29.60;27.80;;;6.00;1.00;;;;;;5014675;28;20680;-73
2020/12/28 11:07:58;;;;;;;29.27;26.60;;;6.10;1.00;;;;;;5014813;28;20191;-73
2020/12/28 11:10:24;;;;;;;31.97;30.07;;;6.10;1.00;;;;;;5015067;28;20664;-73
2020/12/28 11:12:50;;;;;;;31.53;29.53;;;6.10;1.00;;;;;;5014973;28;20237;-73
2020/12/28 11:15:15;;;;;;;33.80;31.80;;;6.10;1.00;;;;;;5011331;28;20262;-73
2020/12/28 11:17:41;;;;;;;30.43;28.50;;;6.10;1.00;;;;;;5013683;28;20214;-73
2020/12/28 11:20:07;;;;;;;27.77;25.87;;;6.20;1.00;;;;;;5013532;28;20728;-73
2020/12/28 11:22:33;;;;;;;28.10;26.40;;;6.20;1.00;;;;;;5012065;28;20167;-73
2020/12/28 11:24:59;;;;;;;29.93;27.87;;;6.10;1.00;;;;;;5014354;28;20648;-74
2020/12/28 11:27:26;;;;;;;30.30;28.60;;;6.20;1.00;;;;;;5014792;28;20191;-73
2020/12/28 11:29:52;;;;;;;29.58;27.75;;;6.40;1.00;;;;;;5014589;28;20179;-73
2020/12/28 11:32:18;;;;;;;27.80;25.50;;;6.40;1.00;;;;;;5014431;28;20664;-73
2020/12/28 11:34:43;;;;;;;29.13;27.33;;;6.40;1.00;;;;;;5014521;28;20183;-73
2020/12/28 11:37:09;;;;;;;34.03;32.20;;;6.40;1.00;;;;;;5014082;28;20274;-73
2020/12/28 11:39:34;;;;;;;29.90;27.90;;;6.30;1.00;;;;;;5014366;28;20179;-73
2020/12/28 11:42:00;;;;;;;31.03;29.40;;;6.40;1.00;;;;;;5014294;28;20174;-73
2020/12/28 11:44:25;;;;;;;30.53;28.97;;;6.40;1.00;;;;;;4996800;28;20262;-73
2020/12/28 11:46:55;;;;;;;32.73;31.10;;;6.40;1.00;;;;;;5014019;28;20175;-73
2020/12/28 11:49:21;;;;;;;34.63;32.58;;;6.30;1.00;;;;;;4996598;28;20175;-73
2020/12/28 11:51:53;;;;;;;34.15;32.45;;;6.20;1.00;;;;;;5014061;28;20637;-73
2020/12/28 11:54:20;;;;;;;29.88;28.33;;;6.30;1.00;;;;;;5014303;28;20182;-73
2020/12/28 11:56:45;;;;;;;35.13;33.22;;;6.20;1.00;;;;;;5013982;28;20229;-74
2020/12/28 11:59:11;;;;;;;29.40;27.90;;;6.20;1.00;;;;;;5014141;28;20658;-73
2020/12/28 12:01:37;;;;;;;26.80;25.30;;;6.30;1.00;;;;;;5013983;28;20202;-73
2020/12/28 12:04:02;;;;;;;37.43;35.17;;;6.40;1.00;;;;;;5014917;28;20254;-74
2020/12/28 12:06:28;;;;;;;34.90;33.10;;;6.30;1.00;;;;;;5013927;28;20253;-74
2020/12/28 12:09:12;;;;;;;33.43;31.23;;;6.30;1.00;;;;;;4996257;28;20187;-74
2020/12/28 12:11:43;;;;;;;30.60;28.70;;;6.30;1.00;;;;;;5014053;28;20167;-74
2020/12/28 12:14:10;;;;;;;32.80;31.10;;;6.40;1.00;;;;;;5013746;28;20174;-74
2020/12/28 12:16:36;;;;;;;33.20;31.60;;;6.40;1.00;;;;;;5011064;28;20265;-75
2020/12/28 12:19:02;;;;;;;33.43;31.53;;;6.40;1.00;;;;;;5012911;28;20664;-73
2020/12/28 12:21:27;;;;;;;45.30;43.20;;;6.40;1.00;;;;;;5013597;28;20453;-73
2020/12/28 12:23:53;;;;;;;42.00;39.87;;;6.50;1.00;;;;;;5011610;28;20402;-74
2020/12/28 12:26:23;;;;;;;34.50;32.70;;;6.40;1.00;;;;;;4995282;28;20180;-73
2020/12/28 12:28:50;;;;;;;38.58;36.58;;;6.40;1.00;;;;;;5013337;28;20653;-73
2020/12/28 12:31:16;;;;;;;35.63;33.58;;;6.40;1.00;;;;;;5011293;28;20187;-74
2020/12/28 12:33:43;;;;;;;38.97;36.97;;;6.40;1.00;;;;;;5012978;28;20183;-73
2020/12/28 12:36:15;;;;;;;41.20;39.17;;;6.40;1.00;;;;;;5110277;27;20564;-75
2020/12/28 12:38:41;;;;;;;31.48;29.92;;;6.40;1.00;;;;;;5107563;28;20211;-74
2020/12/28 12:41:07;;;;;;;35.27;33.57;;;6.40;1.00;;;;;;5110014;28;20597;-74
2020/12/28 12:43:32;;;;;;;34.00;32.17;;;6.30;1.00;;;;;;5110018;28;20172;-74
2020/12/28 12:45:58;;;;;;;37.43;35.67;;;6.30;1.00;;;;;;5108760;28;20175;-74
2020/12/28 12:48:24;;;;;;;42.65;40.63;;;6.40;1.00;;;;;;5109800;28;20677;-75
2020/12/28 12:50:52;;;;;;;43.67;41.57;;;6.40;1.00;;;;;;5109964;28;20183;-75
2020/12/28 12:53:18;;;;;;;39.50;37.60;;;6.40;1.00;;;;;;5110066;28;20256;-75
2020/12/28 12:55:44;;;;;;;39.60;37.33;;;6.50;1.00;;;;;;5089273;28;20300;-75
2020/12/28 12:58:10;;;;;;;37.70;35.50;;;6.60;1.00;;;;;;5089434;28;20189;-75
2020/12/28 13:00:36;;;;;;;39.80;37.40;;;6.60;1.00;;;;;;5094641;28;20168;-75
2020/12/28 13:03:02;;;;;;;38.13;36.13;;;6.60;1.00;;;;;;5089314;28;20771;-75
2020/12/28 13:05:27;;;;;;;48.88;46.47;;;6.60;1.00;;;;;;5089223;28;20172;-75
2020/12/28 13:07:54;;;;;;;41.83;39.83;;;6.60;1.00;;;;;;5089046;28;20184;-74
2020/12/28 13:10:20;;;;;;;36.85;34.95;;;6.70;1.00;;;;;;5089450;28;20200;-75
2020/12/28 13:12:45;;;;;;;37.90;36.00;;;6.70;1.00;;;;;;5089124;28;20169;-75
2020/12/28 13:15:11;;;;;;;37.90;36.20;;;6.70;1.00;;;;;;5087365;28;20200;-75
2020/12/28 13:17:37;;;;;;;40.00;38.10;;;6.60;1.00;;;;;;5089788;28;20271;-75
2020/12/28 13:20:04;;;;;;;33.90;32.30;;;6.50;1.00;;;;;;5089387;28;20411;-76
2020/12/28 13:22:29;;;;;;;41.22;39.08;;;6.60;1.00;;;;;;5089167;28;20164;-75
2020/12/28 13:24:55;;;;;;;43.30;41.30;;;6.50;1.00;;;;;;5089054;28;20234;-74